This is the latest recevied weather packets stored in our database for station/object ZS1OSS-13. If no packets are shown the sender has not sent any weather packets the latest 10 day(s).
| Time | Temp. | Humidity | Pressure | Rain* | Wind** | Luminosity | Snow |
|---|---|---|---|---|---|---|---|
| 1777987014 | 17.78° C | 71% | 1014.2 hPa | 0 mm | - | 58 W/m² | - |
| 1777985501 | 20° C | 66% | 1014.1 hPa | 0 mm | - | 510 W/m² | - |
| 1777984589 | 20° C | 63% | 1014.1 hPa | 0 mm | - | 554 W/m² | - |
| 1777984286 | 20° C | 62% | 1014.2 hPa | 0 mm | - | 544 W/m² | - |
| 1777983983 | 20° C | 61% | 1014.3 hPa | 0 mm | - | 524 W/m² | - |
| 1777983681 | 20° C | 60% | 1014 hPa | 0 mm | - | 500 W/m² | - |
| 1777981251 | 20.56° C | 59% | 1014.4 hPa | 0 mm | - | 497 W/m² | - |
| 1777980947 | 20° C | 59% | 1014.3 hPa | 0 mm | - | 503 W/m² | - |
| 1777980644 | 20° C | 59% | 1014.6 hPa | 0 mm | - | 506 W/m² | - |
| 1777980340 | 20° C | 60% | 1014.6 hPa | 0 mm | - | 506 W/m² | - |
| 1777980039 | 20° C | 63% | 1014.7 hPa | 0 mm | - | 507 W/m² | - |
| 1777979732 | 18.89° C | 64% | 1014.7 hPa | 0 mm | - | 505 W/m² | - |
| 1777979429 | 19.44° C | 61% | 1014.7 hPa | 0 mm | - | 508 W/m² | - |
| 1777979126 | 18.89° C | 65% | 1014.8 hPa | 0 mm | - | 514 W/m² | - |
| 1777978822 | 19.44° C | 62% | 1014.9 hPa | 0 mm | - | 517 W/m² | - |
| 1777978519 | 18.89° C | 64% | 1015 hPa | 0 mm | - | 521 W/m² | - |
| 1777978215 | 18.89° C | 64% | 1014.8 hPa | 0 mm | - | 522 W/m² | - |
| 1777977306 | 19.44° C | 63% | 1015 hPa | 0 mm | - | 547 W/m² | - |
| 1777977003 | 19.44° C | 63% | 1015.1 hPa | 0 mm | - | 551 W/m² | - |
| 1777976700 | 18.89° C | 64% | 1015.2 hPa | 0 mm | - | 543 W/m² | - |
| 1777976398 | 19.44° C | 65% | 1015.4 hPa | 0 mm | - | 551 W/m² | - |
| 1777976095 | 18.89° C | 66% | 1015.3 hPa | 0 mm | - | 560 W/m² | - |
| 1777975792 | 19.44° C | 66% | 1015.3 hPa | 0 mm | - | 575 W/m² | - |
| 1777975490 | 19.44° C | 66% | 1015.2 hPa | 0 mm | - | 566 W/m² | - |
| 1777975185 | 18.89° C | 68% | 1015.5 hPa | 0 mm | - | 578 W/m² | - |
* Rain latest hour (hover to see other rain measurements)
** Current wind speed in m/s (hover to see current wind gust speed)